Time;durP1;ratioP1;P1;durP2;ratioP2;P2;SDS_P1;SDS_P2;PMS_P1;PMS_P2;Temp;Humidity;BMP_temperature;BMP_pressure;BME280_temperature;BME280_humidity;BME280_pressure;Samples;Min_cycle;Max_cycle;Signal;HPM_P1;HPM_P2
2022/05/10 00:00:36;;;;;;;;;;;18.50;99.90;;;;;;5076252;28;19904;-78
2022/05/10 00:03:04;;;;;;;;;;;18.60;99.60;;;;;;5057660;28;19909;-79
2022/05/10 00:05:32;;;;;;;;;;;18.60;99.20;;;;;;5075766;28;19908;-79
2022/05/10 00:07:59;;;;;;;;;;;18.60;99.90;;;;;;5075555;28;19909;-78
2022/05/10 00:10:25;;;;;;;;;;;18.50;99.90;;;;;;5075417;28;19908;-79
2022/05/10 00:12:50;;;;;;;;;;;18.30;99.90;;;;;;5075618;28;19930;-79
2022/05/10 00:15:16;;;;;;;;;;;18.30;99.90;;;;;;5075543;28;19904;-81
2022/05/10 00:17:42;;;;;;;;;;;18.20;99.90;;;;;;5075417;28;19904;-77
2022/05/10 00:20:13;;;;;;;;;;;18.20;99.90;;;;;;5075343;28;20380;-81
2022/05/10 00:22:38;;;;;;;;;;;18.10;99.90;;;;;;5075408;28;20288;-81
2022/05/10 00:25:05;;;;;;;;;;;18.20;99.90;;;;;;5075384;28;19915;-80
2022/05/10 00:27:31;;;;;;;;;;;18.30;99.90;;;;;;5075135;28;19911;-80
2022/05/10 00:29:57;;;;;;;;;;;18.10;99.90;;;;;;5075082;28;19904;-79
2022/05/10 00:32:24;;;;;;;;;;;18.00;99.90;;;;;;5075041;28;19910;-80
2022/05/10 00:34:50;;;;;;;;;;;17.70;99.90;;;;;;5075051;28;19919;-79
2022/05/10 00:37:18;;;;;;;;;;;17.50;99.90;;;;;;5056876;28;19904;-80
2022/05/10 00:39:44;;;;;;;;;;;17.20;99.90;;;;;;5075164;28;19904;-79
2022/05/10 00:42:12;;;;;;;;;;;17.20;99.90;;;;;;5075139;28;20003;-79
2022/05/10 00:44:44;;;;;;;;;;;17.50;99.90;;;;;;5074843;28;19908;-80
2022/05/10 00:47:22;;;;;;;;;;;17.70;99.90;;;;;;5056851;28;19904;-81
2022/05/10 00:49:52;;;;;;;;;;;17.70;99.90;;;;;;5074617;28;20353;-78
2022/05/10 00:52:21;;;;;;;;;;;17.60;99.90;;;;;;5056483;28;19904;-80
2022/05/10 00:54:47;;;;;;;;;;;17.30;99.90;;;;;;5074706;28;19904;-81
2022/05/10 00:57:12;;;;;;;;;;;16.80;99.90;;;;;;5074624;28;19958;-80
2022/05/10 00:59:41;;;;;;;;;;;16.80;99.90;;;;;;5074737;28;19952;-80
2022/05/10 01:02:11;;;;;;;;;;;17.20;99.90;;;;;;5074065;28;19905;-80
2022/05/10 01:04:40;;;;;;;;;;;17.70;99.90;;;;;;5074738;28;19953;-80
2022/05/10 01:07:09;;;;;;;;;;;17.60;99.90;;;;;;5074367;28;19911;-81
2022/05/10 01:09:43;;;;;;;;;;;17.70;99.90;;;;;;5056334;28;19912;-81
2022/05/10 01:12:32;;;;;;;;;;;17.70;99.90;;;;;;5056274;28;19930;-81
2022/05/10 01:15:03;;;;;;;;;;;17.70;99.90;;;;;;5058371;28;19905;-81
2022/05/10 01:17:29;;;;;;;;;;;17.80;99.90;;;;;;5074199;28;19905;-80
2022/05/10 01:19:55;;;;;;;;;;;17.60;99.90;;;;;;5074450;28;19905;-79
2022/05/10 01:22:34;;;;;;;;;;;17.80;99.90;;;;;;5056195;28;19904;-78
2022/05/10 01:24:59;;;;;;;;;;;17.80;99.90;;;;;;5074305;28;19909;-79
2022/05/10 01:27:25;;;;;;;;;;;17.80;99.90;;;;;;5074014;28;20007;-80
2022/05/10 01:30:03;;;;;;;;;;;17.70;99.90;;;;;;5074079;28;19948;-79
2022/05/10 01:35:43;;;;;;;;;;;17.40;99.90;;;;;;5043303;28;19911;-80
2022/05/10 01:38:22;;;;;;;;;;;17.30;99.90;;;;;;5073722;28;19942;-82
2022/05/10 01:40:51;;;;;;;;;;;17.30;99.90;;;;;;5074178;28;20272;-81
2022/05/10 01:43:21;;;;;;;;;;;17.30;99.90;;;;;;5073841;28;20368;-80
2022/05/10 01:45:48;;;;;;;;;;;17.20;99.90;;;;;;5073427;28;19920;-81
2022/05/10 01:48:17;;;;;;;;;;;17.10;99.90;;;;;;5073948;28;20003;-81
2022/05/10 01:50:45;;;;;;;;;;;17.00;99.90;;;;;;5055795;28;19909;-81
2022/05/10 01:53:13;;;;;;;;;;;16.90;99.90;;;;;;5073726;28;20313;-81
2022/05/10 01:55:47;;;;;;;;;;;16.80;99.90;;;;;;5073708;28;19904;-81
2022/05/10 01:58:14;;;;;;;;;;;16.70;99.90;;;;;;5074036;28;19912;-80
2022/05/10 02:00:41;;;;;;;;;;;16.70;99.90;;;;;;5073657;28;19934;-81
2022/05/10 02:03:25;;;;;;;;;;;16.90;99.90;;;;;;5073170;28;20349;-81
2022/05/10 02:05:56;;;;;;;;;;;16.90;99.90;;;;;;5073566;28;19905;-81
2022/05/10 02:08:42;;;;;;;;;;;16.80;99.90;;;;;;5073506;28;20003;-80
2022/05/10 02:11:10;;;;;;;;;;;16.80;99.90;;;;;;5073058;28;19911;-82
2022/05/10 02:13:38;;;;;;;;;;;16.70;99.90;;;;;;5073526;28;19912;-81
2022/05/10 02:16:24;;;;;;;;;;;16.60;99.90;;;;;;5074026;28;20357;-79
2022/05/10 02:19:08;;;;;;;;;;;16.60;99.90;;;;;;5072672;28;19912;-79
2022/05/10 02:21:39;;;;;;;;;;;16.50;99.90;;;;;;5073439;28;20003;-81
2022/05/10 02:24:04;;;;;;;;;;;16.60;99.90;;;;;;5073682;28;19944;-81
2022/05/10 02:26:33;;;;;;;;;;;16.50;99.90;;;;;;5073554;28;20344;-80
2022/05/10 02:29:08;;;;;;;;;;;16.50;99.90;;;;;;5073460;28;20006;-80
2022/05/10 02:33:06;;;;;;;;;;;16.70;99.90;;;;;;5055388;28;20023;-79
2022/05/10 02:34:25;;;;;;;;;;;16.70;99.90;;;;;;5072919;28;19914;-80
2022/05/10 02:36:50;;;;;;;;;;;16.80;99.90;;;;;;5055340;28;19904;-81
2022/05/10 02:39:16;;;;;;;;;;;16.60;99.90;;;;;;5072940;28;20381;-80
2022/05/10 02:41:42;;;;;;;;;;;16.60;99.90;;;;;;5073823;28;19913;-81
2022/05/10 02:44:07;;;;;;;;;;;16.50;99.90;;;;;;5073519;28;20272;-80
2022/05/10 02:46:34;;;;;;;;;;;16.50;99.90;;;;;;5055252;28;20245;-82
2022/05/10 02:49:00;;;;;;;;;;;16.20;99.90;;;;;;5073269;28;19912;-80
2022/05/10 02:51:26;;;;;;;;;;;16.30;99.90;;;;;;5073373;28;19904;-81
2022/05/10 02:53:51;;;;;;;;;;;16.30;99.90;;;;;;5073710;28;19905;-81
2022/05/10 02:56:19;;;;;;;;;;;16.30;99.90;;;;;;5073162;28;19950;-81
2022/05/10 02:58:47;;;;;;;;;;;16.30;99.90;;;;;;5073107;28;19999;-80
2022/05/10 03:01:31;;;;;;;;;;;16.20;99.90;;;;;;5073187;28;19959;-80
2022/05/10 03:03:57;;;;;;;;;;;16.10;99.90;;;;;;5073604;28;19904;-81
2022/05/10 03:06:24;;;;;;;;;;;15.80;99.90;;;;;;5072977;28;19950;-79
2022/05/10 03:08:50;;;;;;;;;;;15.90;99.90;;;;;;5072995;28;19912;-81
2022/05/10 03:11:16;;;;;;;;;;;16.00;99.90;;;;;;5072909;28;19944;-81
2022/05/10 03:13:42;;;;;;;;;;;16.00;99.90;;;;;;5056570;28;19948;-79
2022/05/10 03:16:07;;;;;;;;;;;16.00;99.90;;;;;;5076591;28;19958;-81
2022/05/10 03:18:33;;;;;;;;;;;16.10;99.90;;;;;;5076525;28;20360;-79
2022/05/10 03:20:59;;;;;;;;;;;16.00;99.90;;;;;;5076481;28;19905;-81
2022/05/10 03:23:25;;;;;;;;;;;15.90;99.90;;;;;;5076393;28;19951;-81
2022/05/10 03:25:50;;;;;;;;;;;15.90;99.90;;;;;;5076386;28;20349;-79
2022/05/10 03:28:16;;;;;;;;;;;15.90;99.90;;;;;;5076423;28;19993;-82
2022/05/10 03:30:42;;;;;;;;;;;15.80;99.90;;;;;;5076276;28;19912;-80
2022/05/10 03:33:07;;;;;;;;;;;15.60;99.90;;;;;;5076253;28;19949;-82
2022/05/10 03:35:33;;;;;;;;;;;15.50;99.90;;;;;;5058223;28;19908;-81
2022/05/10 03:38:00;;;;;;;;;;;15.30;99.90;;;;;;5076204;28;19924;-82
2022/05/10 03:40:26;;;;;;;;;;;15.10;99.90;;;;;;5076430;28;19970;-79
2022/05/10 03:42:53;;;;;;;;;;;15.10;99.90;;;;;;5076680;28;19944;-81
2022/05/10 03:45:19;;;;;;;;;;;15.10;99.90;;;;;;5076007;28;19905;-78
2022/05/10 03:47:46;;;;;;;;;;;15.10;99.90;;;;;;5076089;28;20384;-79
2022/05/10 03:50:12;;;;;;;;;;;15.30;99.90;;;;;;5076134;28;19912;-79
2022/05/10 03:52:39;;;;;;;;;;;15.20;99.90;;;;;;5075930;28;19904;-79
2022/05/10 03:55:06;;;;;;;;;;;15.20;99.90;;;;;;5075853;28;20007;-80
2022/05/10 03:57:31;;;;;;;;;;;15.10;99.90;;;;;;5075788;28;19930;-80
2022/05/10 03:59:57;;;;;;;;;;;14.90;99.90;;;;;;5076061;28;19905;-79
2022/05/10 04:02:22;;;;;;;;;;;14.90;99.90;;;;;;5075709;28;19905;-80
2022/05/10 04:04:48;;;;;;;;;;;15.00;99.90;;;;;;5075939;28;20357;-80
2022/05/10 04:07:14;;;;;;;;;;;14.80;99.90;;;;;;5076151;28;19915;-79
2022/05/10 04:09:39;;;;;;;;;;;14.80;99.90;;;;;;5075488;28;19955;-82
2022/05/10 04:12:05;;;;;;;;;;;14.80;99.90;;;;;;5075546;28;19904;-79
2022/05/10 04:14:31;;;;;;;;;;;14.90;99.90;;;;;;5076016;28;19912;-78
2022/05/10 04:16:56;;;;;;;;;;;15.00;99.90;;;;;;5075480;28;19957;-80
2022/05/10 04:19:22;;;;;;;;;;;15.00;99.90;;;;;;5075333;28;20305;-79
2022/05/10 04:21:49;;;;;;;;;;;15.00;99.90;;;;;;5075331;28;20037;-81
2022/05/10 04:24:14;;;;;;;;;;;15.00;99.90;;;;;;5075033;28;20022;-81
2022/05/10 04:26:40;;;;;;;;;;;15.00;99.90;;;;;;5056766;28;19965;-79
2022/05/10 04:29:06;;;;;;;;;;;15.00;99.90;;;;;;5057093;28;19909;-80
2022/05/10 04:31:32;;;;;;;;;;;15.10;99.90;;;;;;5057213;28;19911;-80
2022/05/10 04:33:57;;;;;;;;;;;15.10;99.90;;;;;;5057133;28;19904;-81
2022/05/10 04:36:24;;;;;;;;;;;15.10;99.90;;;;;;5075026;28;19911;-78
2022/05/10 04:38:50;;;;;;;;;;;15.10;99.90;;;;;;5053539;28;19917;-80
2022/05/10 04:41:26;;;;;;;;;;;15.10;99.90;;;;;;5053729;28;19951;-79
2022/05/10 04:43:56;;;;;;;;;;;15.20;99.90;;;;;;5054882;28;19904;-79
2022/05/10 04:46:22;;;;;;;;;;;15.10;99.90;;;;;;5054863;28;19912;-79
2022/05/10 04:48:47;;;;;;;;;;;14.80;99.90;;;;;;5054722;28;19908;-80
2022/05/10 04:51:13;;;;;;;;;;;14.80;99.90;;;;;;5054841;28;19913;-81
2022/05/10 04:53:38;;;;;;;;;;;14.80;99.90;;;;;;5055180;28;19912;-80
2022/05/10 04:56:05;;;;;;;;;;;14.80;99.90;;;;;;5053298;28;20068;-81
2022/05/10 04:58:31;;;;;;;;;;;14.80;99.90;;;;;;5054701;28;20365;-81
2022/05/10 05:01:00;;;;;;;;;;;14.80;99.90;;;;;;5054888;28;19961;-81
2022/05/10 05:03:26;;;;;;;;;;;14.70;99.90;;;;;;5054566;28;19927;-80
2022/05/10 05:05:51;;;;;;;;;;;14.70;99.90;;;;;;5054763;28;20368;-81
2022/05/10 05:08:17;;;;;;;;;;;14.70;99.90;;;;;;5054362;28;19931;-81
2022/05/10 05:10:42;;;;;;;;;;;14.70;99.90;;;;;;5054453;28;19912;-80
2022/05/10 05:13:08;;;;;;;;;;;14.60;99.90;;;;;;5053063;28;20330;-80
2022/05/10 05:15:33;;;;;;;;;;;14.30;99.90;;;;;;5054302;28;19909;-80
2022/05/10 05:18:03;;;;;;;;;;;13.90;99.90;;;;;;5054311;28;19967;-81
2022/05/10 05:20:29;;;;;;;;;;;13.80;99.90;;;;;;5052926;28;19909;-79
2022/05/10 05:22:56;;;;;;;;;;;13.90;99.90;;;;;;5054344;28;20353;-81
2022/05/10 05:25:21;;;;;;;;;;;14.30;99.90;;;;;;5054131;28;19908;-79
2022/05/10 05:27:47;;;;;;;;;;;14.60;99.90;;;;;;5054249;28;19912;-81
2022/05/10 05:30:12;;;;;;;;;;;14.80;99.90;;;;;;5054173;28;19927;-81
2022/05/10 05:32:38;;;;;;;;;;;14.90;99.90;;;;;;5054008;28;19905;-78
2022/05/10 05:35:04;;;;;;;;;;;14.90;99.90;;;;;;5054175;28;19913;-82
2022/05/10 05:37:32;;;;;;;;;;;15.00;99.90;;;;;;5056412;28;19915;-79
2022/05/10 05:39:58;;;;;;;;;;;15.00;99.90;;;;;;5074192;28;19904;-80
2022/05/10 05:42:24;;;;;;;;;;;15.20;99.90;;;;;;5073922;28;19931;-81
2022/05/10 05:44:50;;;;;;;;;;;15.30;99.90;;;;;;5074284;28;20349;-81
2022/05/10 05:47:16;;;;;;;;;;;15.40;99.90;;;;;;5055774;28;19904;-78
2022/05/10 05:49:41;;;;;;;;;;;15.50;99.90;;;;;;5073764;28;19908;-78
2022/05/10 05:52:07;;;;;;;;;;;15.50;99.90;;;;;;5073889;28;20051;-80
2022/05/10 05:54:33;;;;;;;;;;;15.60;99.90;;;;;;5073718;28;19904;-80
2022/05/10 05:57:00;;;;;;;;;;;15.70;99.90;;;;;;5073649;28;20361;-81
2022/05/10 05:59:26;;;;;;;;;;;15.90;99.90;;;;;;5073922;28;19954;-81
2022/05/10 06:01:51;;;;;;;;;;;15.80;99.90;;;;;;5073533;28;20373;-81
2022/05/10 06:04:17;;;;;;;;;;;15.80;99.90;;;;;;5073698;28;20257;-81
2022/05/10 06:06:43;;;;;;;;;;;15.90;99.90;;;;;;5073630;28;19905;-80
2022/05/10 06:09:08;;;;;;;;;;;15.90;99.90;;;;;;5073917;28;19912;-79
2022/05/10 06:11:34;;;;;;;;;;;16.10;99.90;;;;;;5055488;28;19954;-79
2022/05/10 06:14:01;;;;;;;;;;;16.40;99.90;;;;;;5055517;28;19908;-78
2022/05/10 06:16:27;;;;;;;;;;;16.40;99.90;;;;;;5055539;28;19904;-82
2022/05/10 06:18:53;;;;;;;;;;;16.50;99.90;;;;;;5073453;28;20280;-80
2022/05/10 06:21:18;;;;;;;;;;;16.60;99.90;;;;;;5073445;28;19912;-79
2022/05/10 06:23:44;;;;;;;;;;;16.60;99.90;;;;;;5073408;28;19912;-80
2022/05/10 06:26:09;;;;;;;;;;;16.70;99.90;;;;;;5073431;28;19911;-80
2022/05/10 06:28:35;;;;;;;;;;;16.90;99.90;;;;;;5073615;28;19908;-80
2022/05/10 06:31:02;;;;;;;;;;;17.00;99.90;;;;;;5073536;28;19905;-79
2022/05/10 06:33:28;;;;;;;;;;;17.10;99.90;;;;;;5073362;28;20279;-79
2022/05/10 06:35:54;;;;;;;;;;;17.20;99.90;;;;;;5073382;28;19983;-78
2022/05/10 06:38:24;;;;;;;;;;;17.30;99.90;;;;;;5073362;28;19916;-83
2022/05/10 06:40:50;;;;;;;;;;;17.30;99.90;;;;;;5055261;28;19905;-81
2022/05/10 06:43:16;;;;;;;;;;;17.50;99.90;;;;;;5073508;28;19912;-78
2022/05/10 06:45:41;;;;;;;;;;;17.50;99.90;;;;;;5073239;28;20348;-81
2022/05/10 06:48:07;;;;;;;;;;;17.70;99.90;;;;;;5074176;28;20383;-79
2022/05/10 06:50:33;;;;;;;;;;;17.60;99.90;;;;;;5076990;28;19904;-81
2022/05/10 06:52:59;;;;;;;;;;;17.70;99.90;;;;;;5077526;28;19905;-80
2022/05/10 06:55:26;;;;;;;;;;;17.90;99.90;;;;;;5077946;28;19914;-81
2022/05/10 06:57:53;;;;;;;;;;;18.10;99.90;;;;;;5077107;28;19905;-79
2022/05/10 07:00:19;;;;;;;;;;;18.00;99.90;;;;;;5076820;28;19944;-82
2022/05/10 07:02:45;;;;;;;;;;;18.10;99.90;;;;;;5076829;28;20348;-81
2022/05/10 07:05:12;;;;;;;;;;;18.20;99.90;;;;;;5076855;28;19905;-80
2022/05/10 07:07:38;;;;;;;;;;;18.70;99.90;;;;;;5076694;28;19904;-80
2022/05/10 07:10:04;;;;;;;;;;;20.90;99.90;;;;;;5076710;28;19911;-79
2022/05/10 07:12:30;;;;;;;;;;;22.80;96.10;;;;;;5076771;28;19927;-79
2022/05/10 07:14:57;;;;;;;;;;;23.40;89.60;;;;;;5077533;28;20345;-80
2022/05/10 07:17:22;;;;;;;;;;;24.50;87.30;;;;;;5059037;28;19975;-79
2022/05/10 07:19:48;;;;;;;;;;;25.00;83.90;;;;;;5076865;28;19912;-78
2022/05/10 07:22:14;;;;;;;;;;;25.30;78.10;;;;;;5077248;28;19964;-77
2022/05/10 07:24:41;;;;;;;;;;;25.50;77.10;;;;;;5076994;28;20357;-77
2022/05/10 07:27:07;;;;;;;;;;;25.80;76.10;;;;;;5077535;28;19904;-78
2022/05/10 07:29:32;;;;;;;;;;;25.50;73.20;;;;;;5059000;28;19916;-79
2022/05/10 07:31:58;;;;;;;;;;;25.10;74.90;;;;;;5077116;28;20273;-76
2022/05/10 07:34:24;;;;;;;;;;;25.30;76.10;;;;;;5076658;28;19954;-77
2022/05/10 07:36:49;;;;;;;;;;;25.10;71.90;;;;;;5076678;28;19911;-76
2022/05/10 07:39:15;;;;;;;;;;;24.60;75.20;;;;;;5076495;28;20003;-77
2022/05/10 07:41:41;;;;;;;;;;;24.70;76.20;;;;;;5076741;28;19904;-78
2022/05/10 07:44:06;;;;;;;;;;;24.20;72.50;;;;;;5076573;28;19955;-77
2022/05/10 07:46:32;;;;;;;;;;;23.70;76.50;;;;;;5076681;28;19912;-77
2022/05/10 07:48:58;;;;;;;;;;;24.10;78.00;;;;;;5076434;28;19958;-77
2022/05/10 07:51:24;;;;;;;;;;;24.30;76.00;;;;;;5076782;28;19954;-75
2022/05/10 07:53:50;;;;;;;;;;;24.50;73.40;;;;;;5076970;28;20310;-76
2022/05/10 07:56:16;;;;;;;;;;;24.80;71.10;;;;;;5076352;28;19904;-77
2022/05/10 07:58:41;;;;;;;;;;;24.30;69.80;;;;;;5076994;28;19904;-80
2022/05/10 08:01:07;;;;;;;;;;;23.90;69.90;;;;;;5075023;28;19911;-76
2022/05/10 08:03:33;;;;;;;;;;;24.00;71.30;;;;;;5058501;28;19908;-78
2022/05/10 08:06:01;;;;;;;;;;;24.10;69.20;;;;;;5075866;28;20354;-76
2022/05/10 08:08:28;;;;;;;;;;;24.20;69.80;;;;;;5075776;28;19913;-78
2022/05/10 08:10:54;;;;;;;;;;;24.00;69.90;;;;;;5075522;28;19916;-78
2022/05/10 08:13:21;;;;;;;;;;;24.10;70.40;;;;;;5075666;28;19908;-76
2022/05/10 08:15:47;;;;;;;;;;;24.50;69.00;;;;;;5075489;28;19950;-77
2022/05/10 08:18:13;;;;;;;;;;;24.70;67.70;;;;;;5075447;28;19904;-77
2022/05/10 08:20:39;;;;;;;;;;;24.40;67.60;;;;;;5075691;28;19939;-77
2022/05/10 08:23:06;;;;;;;;;;;24.70;67.50;;;;;;5075391;28;19908;-76
2022/05/10 08:25:32;;;;;;;;;;;25.40;64.60;;;;;;5075387;28;19904;-77
2022/05/10 08:27:58;;;;;;;;;;;25.70;64.20;;;;;;5075488;28;19909;-77
2022/05/10 08:30:24;;;;;;;;;;;25.70;63.80;;;;;;5075267;28;19904;-77
2022/05/10 08:32:49;;;;;;;;;;;25.70;61.30;;;;;;5075613;28;19905;-76
2022/05/10 08:35:15;;;;;;;;;;;25.80;62.10;;;;;;5075659;28;19950;-78
2022/05/10 08:37:40;;;;;;;;;;;25.40;59.30;;;;;;5057021;28;19916;-76
2022/05/10 08:40:26;;;;;;;;;;;24.90;59.80;;;;;;5057875;28;19912;-76
2022/05/10 08:42:54;;;;;;;;;;;25.90;59.20;;;;;;5073799;28;19944;-77
2022/05/10 08:45:21;;;;;;;;;;;25.80;57.70;;;;;;5075445;28;19904;-76
2022/05/10 08:47:47;;;;;;;;;;;26.00;57.90;;;;;;5075487;28;19905;-78
2022/05/10 08:50:13;;;;;;;;;;;26.40;55.30;;;;;;5074813;28;19905;-77
2022/05/10 08:52:40;;;;;;;;;;;26.20;55.70;;;;;;5074815;28;20364;-78
2022/05/10 08:55:08;;;;;;;;;;;26.60;54.00;;;;;;5074794;28;20353;-77
2022/05/10 08:57:37;;;;;;;;;;;26.40;53.50;;;;;;5074838;28;19911;-77
2022/05/10 09:00:09;;;;;;;;;;;26.20;54.20;;;;;;5056691;28;19955;-76
2022/05/10 09:02:46;;;;;;;;;;;26.70;53.90;;;;;;5074595;28;19908;-79
2022/05/10 09:05:12;;;;;;;;;;;27.10;52.00;;;;;;5074543;28;19905;-78
2022/05/10 09:07:56;;;;;;;;;;;26.80;52.40;;;;;;5074670;28;20280;-77
2022/05/10 09:10:31;;;;;;;;;;;27.30;53.80;;;;;;5056398;28;19911;-77
2022/05/10 09:13:06;;;;;;;;;;;28.30;52.20;;;;;;5074246;28;19905;-77
2022/05/10 09:15:36;;;;;;;;;;;28.50;52.70;;;;;;5074527;28;19904;-77
2022/05/10 09:18:06;;;;;;;;;;;28.50;52.20;;;;;;5074278;28;19904;-77
2022/05/10 09:20:32;;;;;;;;;;;28.90;51.80;;;;;;5074189;28;19911;-77
2022/05/10 09:22:57;;;;;;;;;;;28.60;49.00;;;;;;5074171;28;19904;-78
2022/05/10 09:25:35;;;;;;;;;;;28.30;47.00;;;;;;5074410;28;20364;-77
2022/05/10 09:28:12;;;;;;;;;;;28.30;48.30;;;;;;5074020;28;19998;-76
2022/05/10 09:30:38;;;;;;;;;;;28.80;48.00;;;;;;5074134;28;19904;-77
2022/05/10 09:36:05;;;;;;;;;;;29.30;47.50;;;;;;5074050;28;19915;-78
2022/05/10 09:38:31;;;;;;;;;;;29.60;46.90;;;;;;5055812;28;19916;-78
2022/05/10 09:40:57;;;;;;;;;;;29.80;46.70;;;;;;5073970;28;20030;-78
2022/05/10 09:43:32;;;;;;;;;;;30.30;46.70;;;;;;5073945;28;19935;-76
2022/05/10 09:46:22;;;;;;;;;;;30.70;46.60;;;;;;5074120;28;20356;-79
2022/05/10 09:48:48;;;;;;;;;;;31.10;46.00;;;;;;5055485;28;20395;-77
2022/05/10 09:51:19;;;;;;;;;;;32.70;44.50;;;;;;5074348;28;19905;-77
2022/05/10 09:53:46;;;;;;;;;;;33.00;45.00;;;;;;5073663;28;19987;-77
2022/05/10 09:56:28;;;;;;;;;;;33.50;43.70;;;;;;5074227;28;19951;-78
2022/05/10 09:58:58;;;;;;;;;;;35.70;41.60;;;;;;5073777;28;19908;-76
2022/05/10 10:01:39;;;;;;;;;;;35.90;40.40;;;;;;5073707;28;19939;-77
2022/05/10 10:04:23;;;;;;;;;;;37.30;40.00;;;;;;5074283;28;19931;-78
2022/05/10 10:07:18;;;;;;;;;;;36.90;38.30;;;;;;5073925;28;19904;-78
2022/05/10 10:09:46;;;;;;;;;;;37.70;38.40;;;;;;5030216;28;20366;-78
2022/05/10 10:12:14;;;;;;;;;;;37.90;37.40;;;;;;5073760;28;19905;-75
2022/05/10 10:14:48;;;;;;;;;;;37.90;38.40;;;;;;5074093;28;20283;-75
2022/05/10 10:17:19;;;;;;;;;;;38.50;36.90;;;;;;5073576;28;20256;-78
2022/05/10 10:19:48;;;;;;;;;;;39.80;37.30;;;;;;5073615;28;20307;-78
2022/05/10 10:22:37;;;;;;;;;;;39.20;34.60;;;;;;5073798;28;19991;-79
2022/05/10 10:25:15;;;;;;;;;;;38.70;35.40;;;;;;5061541;28;19999;-78
2022/05/10 10:27:41;;;;;;;;;;;37.80;36.50;;;;;;5077712;28;19966;-78
2022/05/10 10:30:10;;;;;;;;;;;38.10;35.60;;;;;;5077579;28;19905;-77
2022/05/10 10:32:38;;;;;;;;;;;38.80;35.20;;;;;;5077549;28;19904;-78
2022/05/10 10:35:13;;;;;;;;;;;38.60;34.70;;;;;;5077428;28;20007;-77
2022/05/10 10:37:54;;;;;;;;;;;38.70;34.50;;;;;;5077252;28;19920;-77
2022/05/10 10:40:30;;;;;;;;;;;38.50;35.30;;;;;;5077691;28;20364;-78
2022/05/10 10:43:18;;;;;;;;;;;38.70;34.30;;;;;;5077302;28;19905;-76
2022/05/10 10:45:45;;;;;;;;;;;39.10;34.40;;;;;;5059266;28;19958;-80
2022/05/10 10:48:28;;;;;;;;;;;39.60;34.60;;;;;;5077268;28;19908;-78
2022/05/10 10:50:54;;;;;;;;;;;40.40;34.00;;;;;;5077652;28;19912;-77
2022/05/10 10:53:22;;;;;;;;;;;39.60;33.60;;;;;;5077100;28;19905;-77
2022/05/10 10:56:06;;;;;;;;;;;39.00;35.20;;;;;;5076998;28;19912;-78
2022/05/10 10:58:41;;;;;;;;;;;40.50;34.60;;;;;;5076977;28;19905;-78
2022/05/10 11:01:25;;;;;;;;;;;41.00;34.10;;;;;;5077043;28;19912;-77
2022/05/10 11:03:51;;;;;;;;;;;40.20;33.50;;;;;;5076845;28;19905;-79
2022/05/10 11:06:26;;;;;;;;;;;39.60;34.40;;;;;;5076847;28;19904;-79
2022/05/10 11:08:58;;;;;;;;;;;39.70;34.10;;;;;;5076721;28;19961;-78
2022/05/10 11:11:36;;;;;;;;;;;38.60;34.20;;;;;;5067123;28;19948;-77
2022/05/10 11:14:02;;;;;;;;;;;39.10;35.40;;;;;;5047183;28;19995;-79
2022/05/10 11:16:28;;;;;;;;;;;37.80;35.30;;;;;;5052290;28;19994;-76
2022/05/10 11:18:56;;;;;;;;;;;37.80;36.30;;;;;;5064545;28;19956;-77
2022/05/10 11:21:30;;;;;;;;;;;38.20;35.80;;;;;;5063467;28;19905;-77
2022/05/10 11:24:05;;;;;;;;;;;38.20;35.50;;;;;;5043794;28;19905;-77
2022/05/10 11:26:43;;;;;;;;;;;36.70;36.20;;;;;;5064274;28;20376;-77
2022/05/10 11:29:10;;;;;;;;;;;37.30;36.20;;;;;;5064813;28;19916;-77
2022/05/10 11:31:35;;;;;;;;;;;37.00;36.80;;;;;;5064155;28;19905;-78
2022/05/10 11:34:20;;;;;;;;;;;37.00;36.40;;;;;;5061478;28;19911;-76
2022/05/10 11:36:49;;;;;;;;;;;37.60;36.20;;;;;;5069170;28;19982;-76
2022/05/10 11:39:33;;;;;;;;;;;38.20;35.90;;;;;;5064589;28;19920;-78
2022/05/10 11:42:13;;;;;;;;;;;38.50;36.20;;;;;;5073311;28;20002;-78
2022/05/10 11:44:58;;;;;;;;;;;38.40;35.40;;;;;;5063793;28;19940;-77
2022/05/10 11:47:24;;;;;;;;;;;38.20;36.00;;;;;;5038541;28;19904;-77
2022/05/10 11:50:03;;;;;;;;;;;38.40;35.40;;;;;;5055901;28;20345;-77
2022/05/10 11:52:37;;;;;;;;;;;38.20;35.50;;;;;;5056136;28;19908;-78
2022/05/10 11:55:36;;;;;;;;;;;40.40;35.50;;;;;;5055900;28;20368;-78
2022/05/10 11:58:04;;;;;;;;;;;40.60;34.10;;;;;;4985012;28;20372;-78
2022/05/10 12:00:32;;;;;;;;;;;40.00;33.90;;;;;;5037926;28;20250;-77
2022/05/10 12:02:59;;;;;;;;;;;40.20;34.10;;;;;;5037935;28;19909;-78
2022/05/10 12:05:35;;;;;;;;;;;40.50;33.80;;;;;;5055724;28;19916;-78
2022/05/10 12:08:02;;;;;;;;;;;41.50;33.50;;;;;;5055589;28;19905;-75
2022/05/10 12:10:30;;;;;;;;;;;41.30;33.10;;;;;;5055519;28;19905;-77
2022/05/10 12:12:57;;;;;;;;;;;41.80;33.40;;;;;;5055570;28;20376;-78
2022/05/10 12:23:49;;;;;;;;;;;41.60;33.70;;;;;;5055547;28;19911;-77
2022/05/10 12:26:34;;;;;;;;;;;44.50;32.40;;;;;;5055331;28;19979;-76
2022/05/10 12:28:59;;;;;;;;;;;43.60;32.90;;;;;;5055216;28;19916;-76
2022/05/10 12:31:32;;;;;;;;;;;42.80;32.50;;;;;;5055806;28;19909;-76
2022/05/10 12:34:08;;;;;;;;;;;42.10;33.20;;;;;;5055167;28;19904;-77
2022/05/10 12:36:35;;;;;;;;;;;41.60;32.80;;;;;;5055422;28;20273;-77
2022/05/10 12:39:16;;;;;;;;;;;40.90;33.20;;;;;;5054883;28;20404;-79
2022/05/10 12:41:49;;;;;;;;;;;41.60;32.90;;;;;;5055039;28;19927;-79
2022/05/10 12:44:18;;;;;;;;;;;42.20;32.40;;;;;;5055248;28;19916;-77
2022/05/10 12:46:51;;;;;;;;;;;42.40;33.20;;;;;;5054269;28;19959;-76
2022/05/10 12:49:22;;;;;;;;;;;42.20;32.50;;;;;;5054785;28;19915;-78
2022/05/10 12:52:20;;;;;;;;;;;42.20;32.10;;;;;;5055294;28;19927;-77
2022/05/10 12:54:48;;;;;;;;;;;41.00;32.90;;;;;;5000993;28;20061;-76
2022/05/10 12:57:17;;;;;;;;;;;40.10;34.10;;;;;;5036805;28;19905;-77
2022/05/10 12:59:48;;;;;;;;;;;41.00;33.90;;;;;;5054758;28;20273;-78
2022/05/10 13:02:14;;;;;;;;;;;40.60;33.60;;;;;;5054996;28;19904;-78
2022/05/10 13:04:42;;;;;;;;;;;40.10;34.50;;;;;;5036613;28;19928;-78
2022/05/10 13:07:08;;;;;;;;;;;39.10;33.80;;;;;;5055167;28;19947;-78
2022/05/10 13:09:40;;;;;;;;;;;38.80;35.70;;;;;;5054425;28;19963;-77
2022/05/10 13:12:08;;;;;;;;;;;39.20;35.00;;;;;;5054380;28;19909;-78
2022/05/10 13:14:39;;;;;;;;;;;39.70;34.40;;;;;;5054321;28;19908;-75
2022/05/10 13:17:05;;;;;;;;;;;40.50;34.10;;;;;;5054614;28;19908;-76
2022/05/10 13:19:36;;;;;;;;;;;40.30;33.80;;;;;;5054307;28;19905;-76
2022/05/10 13:22:05;;;;;;;;;;;40.00;34.30;;;;;;5054517;28;20007;-76
2022/05/10 13:24:31;;;;;;;;;;;40.10;34.40;;;;;;5054296;28;19911;-77
2022/05/10 13:26:59;;;;;;;;;;;38.40;35.10;;;;;;5054169;28;19958;-78
2022/05/10 13:29:54;;;;;;;;;;;37.40;36.90;;;;;;5054300;28;19913;-77
2022/05/10 13:32:37;;;;;;;;;;;37.70;36.50;;;;;;5032503;28;19905;-77
2022/05/10 13:35:05;;;;;;;;;;;36.80;36.80;;;;;;5054064;28;19905;-76
2022/05/10 13:37:32;;;;;;;;;;;35.50;38.10;;;;;;5053787;28;19911;-78
2022/05/10 13:40:00;;;;;;;;;;;35.90;38.10;;;;;;5054240;28;19905;-77
2022/05/10 13:42:26;;;;;;;;;;;36.00;38.50;;;;;;5053866;28;20372;-77
2022/05/10 13:44:52;;;;;;;;;;;35.40;38.30;;;;;;5053872;28;19954;-77
2022/05/10 13:47:31;;;;;;;;;;;35.20;38.70;;;;;;5053866;28;19912;-78
2022/05/10 13:49:57;;;;;;;;;;;34.70;39.90;;;;;;5053771;28;19951;-76
2022/05/10 13:52:27;;;;;;;;;;;34.80;40.10;;;;;;5054055;28;19905;-77
2022/05/10 13:54:57;;;;;;;;;;;34.90;38.00;;;;;;5054063;28;19905;-77
2022/05/10 13:57:25;;;;;;;;;;;34.80;38.50;;;;;;5053379;28;20356;-77
2022/05/10 13:59:55;;;;;;;;;;;35.10;38.90;;;;;;5054032;28;19905;-76
2022/05/10 14:02:25;;;;;;;;;;;34.70;38.90;;;;;;5053657;28;20365;-77
2022/05/10 14:04:52;;;;;;;;;;;34.20;38.70;;;;;;5035553;28;19904;-77
2022/05/10 14:07:24;;;;;;;;;;;33.90;38.90;;;;;;5053692;28;19904;-76
2022/05/10 14:09:52;;;;;;;;;;;33.80;40.00;;;;;;5035657;28;19958;-76
2022/05/10 14:12:29;;;;;;;;;;;33.90;39.60;;;;;;5053501;28;19932;-77
2022/05/10 14:15:17;;;;;;;;;;;33.80;38.70;;;;;;5053818;28;19951;-76
2022/05/10 14:17:48;;;;;;;;;;;33.50;39.40;;;;;;5053509;28;19909;-77
2022/05/10 14:20:20;;;;;;;;;;;34.10;38.40;;;;;;5053630;28;19999;-76
2022/05/10 14:22:47;;;;;;;;;;;34.10;38.10;;;;;;5054122;28;19908;-77
2022/05/10 14:25:14;;;;;;;;;;;33.80;38.60;;;;;;5053364;28;19909;-77
2022/05/10 14:27:53;;;;;;;;;;;33.50;38.60;;;;;;5053728;28;19905;-78
2022/05/10 14:30:20;;;;;;;;;;;33.70;38.80;;;;;;5035433;28;19974;-78
2022/05/10 14:32:46;;;;;;;;;;;33.30;38.90;;;;;;5053638;28;19904;-76
2022/05/10 14:35:31;;;;;;;;;;;32.90;39.40;;;;;;5053407;28;20258;-76
2022/05/10 14:38:00;;;;;;;;;;;33.10;39.40;;;;;;5053372;28;19923;-76
2022/05/10 14:40:28;;;;;;;;;;;32.50;39.80;;;;;;5053266;28;19948;-77
2022/05/10 14:43:08;;;;;;;;;;;32.80;39.50;;;;;;5035356;28;19904;-77